createdAt,value
2018-05-06T00:01:33.109Z,10.14
2018-05-06T00:04:37.197Z,10.08
2018-05-06T00:07:40.498Z,10.03
2018-05-06T00:10:43.814Z,9.98
2018-05-06T00:13:47.882Z,9.96
2018-05-06T00:16:51.193Z,9.92
2018-05-06T00:19:54.480Z,9.88
2018-05-06T00:22:57.789Z,9.88
2018-05-06T00:26:01.104Z,9.84
2018-05-06T00:29:04.397Z,9.78
2018-05-06T00:32:07.712Z,9.73
2018-05-06T00:35:11.775Z,9.69
2018-05-06T00:38:15.085Z,9.68
2018-05-06T00:41:18.385Z,9.65
2018-05-06T00:44:21.700Z,9.60
2018-05-06T00:47:24.993Z,9.55
2018-05-06T00:50:28.301Z,9.51
2018-05-06T00:53:31.599Z,9.49
2018-05-06T00:56:35.672Z,9.47
2018-05-06T00:59:39.009Z,9.44
2018-05-06T01:02:43.077Z,9.42
2018-05-06T01:05:46.389Z,9.39
2018-05-06T01:08:49.705Z,9.37
2018-05-06T01:11:53.001Z,9.33
2018-05-06T01:14:56.304Z,9.26
2018-05-06T01:18:00.372Z,9.22
2018-05-06T01:21:03.678Z,9.19
2018-05-06T01:24:07.012Z,9.16
2018-05-06T01:27:11.081Z,9.11
2018-05-06T01:30:14.411Z,9.06
2018-05-06T01:33:17.705Z,9.03
2018-05-06T01:36:21.029Z,9.03
2018-05-06T01:39:24.332Z,9.01
2018-05-06T01:42:27.657Z,9.02
2018-05-06T01:45:30.958Z,9.00
2018-05-06T01:48:34.276Z,9.00
2018-05-06T01:51:37.577Z,8.99
2018-05-06T01:54:40.993Z,8.98
2018-05-06T01:57:45.058Z,8.98
2018-05-06T02:00:48.412Z,8.99
2018-05-06T02:03:51.705Z,8.98
2018-05-06T02:06:55.793Z,8.96
2018-05-06T02:09:59.087Z,8.96
2018-05-06T02:13:02.424Z,8.94
2018-05-06T02:16:06.501Z,8.93
2018-05-06T02:19:09.818Z,8.93
2018-05-06T02:22:13.890Z,8.91
2018-05-06T02:25:17.310Z,8.85
2018-05-06T02:28:20.616Z,8.80
2018-05-06T02:31:23.944Z,8.78
2018-05-06T02:34:27.241Z,8.79
2018-05-06T02:37:30.557Z,8.79
2018-05-06T02:40:33.853Z,8.77
2018-05-06T02:43:37.158Z,8.73
2018-05-06T02:46:40.481Z,8.72
2018-05-06T02:49:43.781Z,8.67
2018-05-06T02:52:47.110Z,8.61
2018-05-06T02:55:51.176Z,8.57
2018-05-06T02:58:54.496Z,8.54
2018-05-06T03:01:57.798Z,8.51
2018-05-06T03:05:01.106Z,8.45
2018-05-06T03:08:05.196Z,8.43
2018-05-06T03:11:08.493Z,8.40
2018-05-06T03:14:11.805Z,8.37
2018-05-06T03:17:15.119Z,8.32
2018-05-06T03:20:19.202Z,8.28
2018-05-06T03:23:22.505Z,8.25
2018-05-06T03:26:25.833Z,8.24
2018-05-06T03:29:29.126Z,8.19
2018-05-06T03:32:33.205Z,8.15
2018-05-06T03:35:36.501Z,8.13
2018-05-06T03:38:39.812Z,8.11
2018-05-06T03:41:43.876Z,8.11
2018-05-06T03:44:47.213Z,8.09
2018-05-06T03:47:50.508Z,8.11
2018-05-06T03:50:53.833Z,8.07
2018-05-06T03:53:57.893Z,8.05
2018-05-06T03:57:18.866Z,8.04
2018-05-06T04:00:40.046Z,8.04
2018-05-06T04:03:43.347Z,8.03
2018-05-06T04:06:46.645Z,8.04
2018-05-06T04:09:49.958Z,8.05
2018-05-06T04:12:54.034Z,8.07
2018-05-06T04:15:57.343Z,8.10
2018-05-06T04:19:00.671Z,8.14
2018-05-06T04:22:04.726Z,8.19
2018-05-06T04:25:08.040Z,8.23
2018-05-06T04:28:12.858Z,8.29
2018-05-06T04:31:16.184Z,8.34
2018-05-06T04:34:19.481Z,8.43
2018-05-06T04:37:22.797Z,8.54
2018-05-06T04:40:26.853Z,8.64
2018-05-06T04:43:30.164Z,8.77
2018-05-06T04:46:33.469Z,8.89
2018-05-06T04:49:36.776Z,9.03
2018-05-06T04:52:40.087Z,9.16
2018-05-06T04:55:44.160Z,9.30
2018-05-06T04:58:47.481Z,9.44
2018-05-06T05:01:50.781Z,9.57
2018-05-06T05:04:54.081Z,9.68
2018-05-06T05:07:57.396Z,9.80
2018-05-06T05:11:01.452Z,9.94
2018-05-06T05:14:04.790Z,10.05
2018-05-06T05:17:08.114Z,10.17
2018-05-06T05:20:11.482Z,10.29
2018-05-06T05:23:14.748Z,10.40
2018-05-06T05:26:18.058Z,10.52
2018-05-06T05:29:21.357Z,10.64
2018-05-06T05:32:24.674Z,10.77
2018-05-06T05:35:27.981Z,10.88
2018-05-06T05:38:32.084Z,11.04
2018-05-06T05:41:35.385Z,11.18
2018-05-06T05:44:39.464Z,11.32
2018-05-06T05:47:42.809Z,11.47
2018-05-06T05:50:46.880Z,11.62
2018-05-06T05:53:50.198Z,11.76
2018-05-06T05:56:53.506Z,11.94
2018-05-06T05:59:57.598Z,12.12
2018-05-06T06:03:00.901Z,12.29
2018-05-06T06:06:04.224Z,12.42
2018-05-06T06:09:08.302Z,12.61
2018-05-06T06:12:11.616Z,12.75
2018-05-06T06:15:14.920Z,12.85
2018-05-06T06:18:19.010Z,12.99
2018-05-06T06:21:22.322Z,13.11
2018-05-06T06:24:25.704Z,13.30
2018-05-06T06:27:28.967Z,13.44
2018-05-06T06:30:33.040Z,13.60
2018-05-06T06:33:37.137Z,13.78
2018-05-06T06:36:40.446Z,13.96
2018-05-06T06:39:43.778Z,14.12
2018-05-06T06:42:47.089Z,14.30
2018-05-06T06:45:50.416Z,14.43
2018-05-06T06:48:53.723Z,14.58
2018-05-06T06:51:57.056Z,14.73
2018-05-06T06:55:00.376Z,14.82
2018-05-06T06:58:03.697Z,14.95
2018-05-06T07:01:07.005Z,15.08
2018-05-06T07:04:10.329Z,15.19
2018-05-06T07:07:14.401Z,15.28
2018-05-06T07:10:17.713Z,15.39
2018-05-06T07:13:21.018Z,15.53
2018-05-06T07:16:24.368Z,15.67
2018-05-06T07:19:27.666Z,15.80
2018-05-06T07:22:30.983Z,15.91
2018-05-06T07:25:34.276Z,16.04
2018-05-06T07:28:37.593Z,16.21
2018-05-06T07:31:40.928Z,16.33
2018-05-06T07:34:44.233Z,16.42
2018-05-06T07:37:47.570Z,16.58
2018-05-06T07:40:50.873Z,16.70
2018-05-06T07:43:54.197Z,16.81
2018-05-06T07:46:58.277Z,16.94
2018-05-06T07:50:01.589Z,17.07
2018-05-06T07:53:04.897Z,17.19
2018-05-06T07:56:08.984Z,17.31
2018-05-06T07:59:12.295Z,17.42
2018-05-06T08:02:15.610Z,17.53
2018-05-06T08:05:19.680Z,17.68
2018-05-06T08:08:23.001Z,17.77
2018-05-06T08:11:26.308Z,17.89
2018-05-06T08:14:29.645Z,18.00
2018-05-06T08:17:32.967Z,18.09
2018-05-06T08:20:36.276Z,18.23
2018-05-06T08:23:39.592Z,18.35
2018-05-06T08:26:43.680Z,18.46
2018-05-06T08:29:46.997Z,18.52
2018-05-06T08:32:50.320Z,18.60
2018-05-06T08:35:54.391Z,18.69
2018-05-06T08:38:57.714Z,18.83
2018-05-06T08:42:01.017Z,18.98
2018-05-06T08:45:05.096Z,19.08
2018-05-06T08:48:08.396Z,19.17
2018-05-06T08:51:11.713Z,19.28
2018-05-06T08:54:15.009Z,19.40
2018-05-06T08:57:18.321Z,19.56
2018-05-06T09:00:22.438Z,19.70
2018-05-06T09:03:26.505Z,19.76
2018-05-06T09:06:29.820Z,19.84
2018-05-06T09:09:33.120Z,19.98
2018-05-06T09:12:36.441Z,20.14
2018-05-06T09:15:40.512Z,20.26
2018-05-06T09:18:43.849Z,20.35
2018-05-06T09:21:47.921Z,20.48
2018-05-06T09:24:51.249Z,20.58
2018-05-06T09:27:54.563Z,20.66
2018-05-06T09:30:58.645Z,20.73
2018-05-06T09:34:01.958Z,20.90
2018-05-06T09:37:06.045Z,20.97
2018-05-06T09:40:09.367Z,21.04
2018-05-06T09:43:12.681Z,21.09
2018-05-06T09:46:16.777Z,21.14
2018-05-06T09:49:20.085Z,21.20
2018-05-06T09:52:23.401Z,21.24
2018-05-06T09:55:26.726Z,21.26
2018-05-06T09:58:30.045Z,21.34
2018-05-06T10:01:33.354Z,21.40
2018-05-06T10:04:36.713Z,21.42
2018-05-06T10:07:40.023Z,21.37
2018-05-06T10:10:43.348Z,21.27
2018-05-06T10:13:46.654Z,21.16
2018-05-06T10:16:50.752Z,21.11
2018-05-06T10:19:54.075Z,21.15
2018-05-06T10:22:58.160Z,21.25
2018-05-06T10:26:01.463Z,21.34
2018-05-06T10:29:04.784Z,21.44
2018-05-06T10:32:08.873Z,21.48
2018-05-06T10:35:12.180Z,21.54
2018-05-06T10:38:15.502Z,21.53
2018-05-06T10:41:18.817Z,21.67
2018-05-06T10:44:22.194Z,21.64
2018-05-06T10:47:25.453Z,21.56
2018-05-06T10:50:29.575Z,21.57
2018-05-06T10:53:32.876Z,21.60
2018-05-06T10:56:36.201Z,21.66
2018-05-06T10:59:39.504Z,21.74
2018-05-06T11:02:42.837Z,21.82
2018-05-06T11:05:46.142Z,21.99
2018-05-06T11:08:49.469Z,22.15
2018-05-06T11:11:53.546Z,22.26
2018-05-06T11:14:56.857Z,22.30
2018-05-06T11:18:00.195Z,22.38
2018-05-06T11:21:03.501Z,22.48
2018-05-06T11:24:06.813Z,22.55
2018-05-06T11:27:10.117Z,22.56
2018-05-06T11:30:13.429Z,22.60
2018-05-06T11:33:16.754Z,22.63
2018-05-06T11:36:20.846Z,22.62
2018-05-06T11:39:24.149Z,22.67
2018-05-06T11:42:27.478Z,22.67
2018-05-06T11:45:30.777Z,22.73
2018-05-06T11:48:34.091Z,22.72
2018-05-06T11:51:37.405Z,22.73
2018-05-06T11:54:40.716Z,22.79
2018-05-06T11:57:44.056Z,22.77
2018-05-06T12:00:48.133Z,22.79
2018-05-06T12:03:51.482Z,22.83
2018-05-06T12:06:54.780Z,22.78
2018-05-06T12:09:58.128Z,22.72
2018-05-06T12:13:01.439Z,22.74
2018-05-06T12:16:04.830Z,22.82
2018-05-06T12:19:08.842Z,22.90
2018-05-06T12:22:12.149Z,22.90
2018-05-06T12:25:16.245Z,22.82
2018-05-06T12:28:19.556Z,22.81
2018-05-06T12:31:22.884Z,22.93
2018-05-06T12:34:26.192Z,22.94
2018-05-06T12:37:29.520Z,22.94
2018-05-06T12:40:32.834Z,22.89
2018-05-06T12:43:36.168Z,22.93
2018-05-06T12:46:39.474Z,23.00
2018-05-06T12:49:42.804Z,22.97
2018-05-06T12:52:46.104Z,22.92
2018-05-06T12:55:49.444Z,22.91
2018-05-06T12:58:52.749Z,22.91
2018-05-06T13:01:56.071Z,22.97
2018-05-06T13:04:59.401Z,22.99
2018-05-06T13:08:02.715Z,23.03
2018-05-06T13:11:06.821Z,23.01
2018-05-06T13:14:10.145Z,23.03
2018-05-06T13:17:13.571Z,22.99
2018-05-06T13:20:16.875Z,23.03
2018-05-06T13:23:20.182Z,23.09
2018-05-06T13:26:23.499Z,23.14
2018-05-06T13:29:26.809Z,23.18
2018-05-06T13:32:30.126Z,23.22
2018-05-06T13:35:33.449Z,23.27
2018-05-06T13:38:36.753Z,23.31
2018-05-06T13:41:40.072Z,23.31
2018-05-06T13:44:43.377Z,23.29
2018-05-06T13:47:46.705Z,23.33
2018-05-06T13:50:50.778Z,23.39
2018-05-06T13:53:54.109Z,23.40
2018-05-06T13:56:58.173Z,23.44
2018-05-06T14:00:01.501Z,23.43
2018-05-06T14:03:04.812Z,23.49
2018-05-06T14:06:08.908Z,23.53
2018-05-06T14:09:12.211Z,23.54
2018-05-06T14:12:15.541Z,23.54
2018-05-06T14:15:18.849Z,23.56
2018-05-06T14:18:22.178Z,23.53
2018-05-06T14:21:25.494Z,23.44
2018-05-06T14:24:28.825Z,23.35
2018-05-06T14:27:32.136Z,23.37
2018-05-06T14:30:35.489Z,23.48
2018-05-06T14:33:38.794Z,23.52
2018-05-06T14:36:42.880Z,23.57
2018-05-06T14:39:46.189Z,23.51
2018-05-06T14:42:49.508Z,23.61
2018-05-06T14:45:53.585Z,23.72
2018-05-06T14:48:56.913Z,23.74
2018-05-06T14:52:00.217Z,23.79
2018-05-06T14:55:04.307Z,23.83
2018-05-06T14:58:07.622Z,23.95
2018-05-06T15:01:11.709Z,24.11
2018-05-06T15:04:15.014Z,24.29
2018-05-06T15:07:18.354Z,24.47
2018-05-06T15:10:21.729Z,24.60
2018-05-06T15:13:25.005Z,24.66
2018-05-06T15:16:28.323Z,24.86
2018-05-06T15:19:32.425Z,25.16
2018-05-06T15:22:35.724Z,25.44
2018-05-06T15:25:39.034Z,25.54
2018-05-06T15:28:43.105Z,25.53
2018-05-06T15:31:46.450Z,25.67
2018-05-06T15:34:50.512Z,25.98
2018-05-06T15:37:53.851Z,26.37
2018-05-06T15:40:57.925Z,26.55
2018-05-06T15:44:01.237Z,26.53
2018-05-06T15:47:04.553Z,26.45
2018-05-06T15:50:07.853Z,26.40
2018-05-06T15:53:11.936Z,26.33
2018-05-06T15:56:15.244Z,26.41
2018-05-06T15:59:18.579Z,26.68
2018-05-06T16:02:53.062Z,26.77
2018-05-06T16:05:56.404Z,26.68
2018-05-06T16:08:59.713Z,26.24
2018-05-06T16:12:03.125Z,25.72
2018-05-06T16:15:06.340Z,25.21
2018-05-06T16:18:09.649Z,24.81
2018-05-06T16:21:12.969Z,24.42
2018-05-06T16:24:17.036Z,24.05
2018-05-06T16:27:20.349Z,23.56
2018-05-06T16:30:23.649Z,23.04
2018-05-06T16:33:26.958Z,22.72
2018-05-06T16:36:30.274Z,22.44
2018-05-06T16:39:34.336Z,22.24
2018-05-06T16:42:37.653Z,22.05
2018-05-06T16:45:41.010Z,21.87
2018-05-06T16:48:45.060Z,21.75
2018-05-06T16:51:48.366Z,21.59
2018-05-06T16:54:53.298Z,21.44
2018-05-06T16:57:56.605Z,21.32
2018-05-06T17:00:59.938Z,21.18
2018-05-06T17:04:03.237Z,21.03
2018-05-06T17:07:06.548Z,20.89
2018-05-06T17:10:09.849Z,20.79
2018-05-06T17:13:13.177Z,20.72
2018-05-06T17:16:16.486Z,20.66
2018-05-06T17:19:19.806Z,20.62
2018-05-06T17:22:23.873Z,20.58
2018-05-06T17:25:27.190Z,20.55
2018-05-06T17:28:30.485Z,20.50
2018-05-06T17:31:33.804Z,20.39
2018-05-06T17:34:37.882Z,20.28
2018-05-06T17:37:41.203Z,20.13
2018-05-06T17:40:45.304Z,20.01
2018-05-06T17:43:48.604Z,19.94
2018-05-06T17:46:51.931Z,19.85
2018-05-06T17:49:55.242Z,19.80
2018-05-06T17:52:58.562Z,19.71
2018-05-06T17:56:01.858Z,19.60
2018-05-06T17:59:05.181Z,19.51
2018-05-06T18:02:08.505Z,19.45
2018-05-06T18:05:12.572Z,19.37
2018-05-06T18:08:15.885Z,19.28
2018-05-06T18:11:19.223Z,19.20
2018-05-06T18:14:22.530Z,19.16
2018-05-06T18:17:25.871Z,19.08
2018-05-06T18:20:29.169Z,18.95
2018-05-06T18:23:32.481Z,18.83
2018-05-06T18:26:35.821Z,18.73
2018-05-06T18:29:39.121Z,18.58
2018-05-06T18:32:42.446Z,18.50
2018-05-06T18:35:45.745Z,18.38
2018-05-06T18:38:49.061Z,18.32
2018-05-06T18:41:52.366Z,18.22
2018-05-06T18:44:56.453Z,18.09
2018-05-06T18:47:59.756Z,18.00
2018-05-06T18:51:03.088Z,17.89
2018-05-06T18:54:07.160Z,17.80
2018-05-06T18:57:10.496Z,17.71
2018-05-06T19:00:14.571Z,17.58
2018-05-06T19:03:17.917Z,17.48
2018-05-06T19:06:21.222Z,17.38
2018-05-06T19:09:24.529Z,17.25
2018-05-06T19:12:27.850Z,17.14
2018-05-06T19:15:31.155Z,17.08
2018-05-06T19:18:34.479Z,16.99
2018-05-06T19:21:38.550Z,16.89
2018-05-06T19:24:41.869Z,16.83
2018-05-06T19:27:45.165Z,16.73
2018-05-06T19:30:48.501Z,16.63
2018-05-06T19:33:51.798Z,16.54
2018-05-06T19:36:55.110Z,16.48
2018-05-06T19:39:58.421Z,16.40
2018-05-06T19:43:01.737Z,16.33
2018-05-06T19:46:05.037Z,16.28
2018-05-06T19:49:08.350Z,16.20
2018-05-06T19:52:11.649Z,16.11
2018-05-06T19:55:15.012Z,16.05
2018-05-06T19:58:18.312Z,15.97
2018-05-06T20:01:21.637Z,15.89
2018-05-06T20:04:25.174Z,15.81
2018-05-06T20:07:28.561Z,15.73
2018-05-06T20:10:31.830Z,15.67
2018-05-06T20:13:35.149Z,15.61
2018-05-06T20:16:39.237Z,15.56
2018-05-06T20:19:42.562Z,15.54
2018-05-06T20:22:46.644Z,15.52
2018-05-06T20:25:49.964Z,15.48
2018-05-06T20:28:54.029Z,15.45
2018-05-06T20:31:57.357Z,15.44
2018-05-06T20:35:00.661Z,15.43
2018-05-06T20:38:03.985Z,15.41
2018-05-06T20:41:07.286Z,15.39
2018-05-06T20:44:10.610Z,15.35
2018-05-06T20:47:13.910Z,15.32
2018-05-06T20:50:17.226Z,15.28
2018-05-06T20:53:20.541Z,15.24
2018-05-06T20:56:23.850Z,15.22
2018-05-06T20:59:27.937Z,15.20
2018-05-06T21:02:31.237Z,15.17
2018-05-06T21:05:34.558Z,15.14
2018-05-06T21:08:38.635Z,15.13
2018-05-06T21:11:41.945Z,15.14
2018-05-06T21:14:45.253Z,15.12
2018-05-06T21:17:48.580Z,15.08
2018-05-06T21:20:51.883Z,15.06
2018-05-06T21:23:55.205Z,15.03
2018-05-06T21:26:58.513Z,14.97
2018-05-06T21:30:01.839Z,14.96
2018-05-06T21:33:05.992Z,14.95
2018-05-06T21:36:09.245Z,15.01
2018-05-06T21:39:12.593Z,15.03
2018-05-06T21:42:16.649Z,15.07
2018-05-06T21:45:19.956Z,15.11
2018-05-06T21:48:24.051Z,15.16
2018-05-06T21:51:27.357Z,15.15
2018-05-06T21:54:30.738Z,15.11
2018-05-06T21:57:34.006Z,15.12
2018-05-06T22:00:37.368Z,15.14
2018-05-06T22:03:41.433Z,15.14
2018-05-06T22:06:44.757Z,15.11
2018-05-06T22:09:48.070Z,15.06
2018-05-06T22:12:52.148Z,15.02
2018-05-06T22:15:55.440Z,14.98
2018-05-06T22:18:58.761Z,14.98
2018-05-06T22:22:02.075Z,14.95
2018-05-06T22:25:06.143Z,14.89
2018-05-06T22:28:09.469Z,14.85
2018-05-06T22:31:12.765Z,14.81
2018-05-06T22:34:16.116Z,14.77
2018-05-06T22:37:19.404Z,14.71
2018-05-06T22:40:22.714Z,14.67
2018-05-06T22:43:26.034Z,14.64
2018-05-06T22:46:29.332Z,14.61
2018-05-06T22:49:32.645Z,14.60
2018-05-06T22:52:35.969Z,14.60
2018-05-06T22:55:40.056Z,14.59
2018-05-06T22:58:43.361Z,14.51
2018-05-06T23:01:46.689Z,14.46
2018-05-06T23:04:49.985Z,14.38
2018-05-06T23:07:53.321Z,14.32
2018-05-06T23:10:56.629Z,14.24
2018-05-06T23:13:59.943Z,14.13
2018-05-06T23:17:03.246Z,14.04
2018-05-06T23:20:07.328Z,13.96
2018-05-06T23:23:10.638Z,13.88
2018-05-06T23:26:13.962Z,13.80
2018-05-06T23:29:18.068Z,13.73
2018-05-06T23:32:21.379Z,13.66
2018-05-06T23:35:25.450Z,13.58
2018-05-06T23:38:28.769Z,13.52
2018-05-06T23:41:32.081Z,13.46
2018-05-06T23:44:36.162Z,13.40
2018-05-06T23:47:39.473Z,13.33
2018-05-06T23:50:42.799Z,13.24
2018-05-06T23:53:46.128Z,13.18
2018-05-06T23:56:49.429Z,13.12
2018-05-06T23:59:52.765Z,13.08
